createdAt,value
2018-08-10T00:01:01.495Z,99042.27
2018-08-10T00:03:29.631Z,99037.27
2018-08-10T00:05:57.746Z,99048.13
2018-08-10T00:08:25.853Z,99050.61
2018-08-10T00:10:53.996Z,99062.77
2018-08-10T00:13:22.103Z,99073.46
2018-08-10T00:15:50.492Z,99079.98
2018-08-10T00:18:18.578Z,99088.66
2018-08-10T00:20:46.671Z,99081.83
2018-08-10T00:23:15.312Z,99095.70
2018-08-10T00:25:43.412Z,99104.36
2018-08-10T00:28:11.520Z,99099.73
2018-08-10T00:30:39.632Z,99116.23
2018-08-10T00:33:07.704Z,99108.73
2018-08-10T00:35:35.795Z,99120.72
2018-08-10T00:38:03.888Z,99118.72
2018-08-10T00:40:31.979Z,99114.03
2018-08-10T00:43:00.065Z,99111.02
2018-08-10T00:45:28.164Z,99109.86
2018-08-10T00:47:56.251Z,99126.50
2018-08-10T00:50:24.352Z,99125.52
2018-08-10T00:52:52.414Z,99128.83
2018-08-10T00:55:20.515Z,99131.80
2018-08-10T00:57:49.306Z,99143.94
2018-08-10T01:00:20.623Z,99143.44
2018-08-10T01:02:48.975Z,99137.27
2018-08-10T01:05:17.093Z,99145.92
2018-08-10T01:07:45.152Z,99145.06
2018-08-10T01:10:15.330Z,99152.55
2018-08-10T01:12:44.127Z,99168.13
2018-08-10T01:15:14.251Z,99166.47
2018-08-10T01:17:42.791Z,99168.29
2018-08-10T01:20:16.584Z,99158.91
2018-08-10T01:22:50.807Z,99173.22
2018-08-10T01:25:20.084Z,99176.48
2018-08-10T01:27:53.582Z,99179.13
2018-08-10T01:30:22.510Z,99174.28
2018-08-10T01:32:51.094Z,99182.80
2018-08-10T01:35:19.197Z,99181.77
2018-08-10T01:37:47.253Z,99195.12
2018-08-10T01:40:15.644Z,99199.40
2018-08-10T01:42:43.742Z,99202.64
2018-08-10T01:45:12.442Z,99199.95
2018-08-10T01:47:41.404Z,99203.53
2018-08-10T01:50:10.011Z,99209.30
2018-08-10T01:52:39.339Z,99208.94
2018-08-10T01:55:07.670Z,99203.83
2018-08-10T03:55:48.996Z,99344.95
2018-08-10T04:22:41.021Z,99362.95
2018-08-10T04:34:18.498Z,99383.11
2018-08-10T04:36:53.659Z,99388.37
2018-08-10T04:39:22.208Z,99387.59
2018-08-10T04:41:51.216Z,99391.91
2018-08-10T04:44:19.794Z,99391.42
2018-08-10T04:46:48.262Z,99400.44
2018-08-10T04:49:16.943Z,99395.97
2018-08-10T04:51:45.832Z,99402.63
2018-08-10T04:54:14.297Z,99400.20
2018-08-10T04:56:42.986Z,99405.28
2018-08-10T22:02:37.880Z,99307.61
2018-08-10T22:05:06.074Z,99313.38
2018-08-10T22:07:34.490Z,99313.52
2018-08-10T22:10:02.608Z,99320.77
2018-08-10T22:12:30.686Z,99320.42
2018-08-10T22:15:04.255Z,99316.45
2018-08-10T22:17:37.731Z,99315.75
2018-08-10T22:20:07.119Z,99324.70
2018-08-10T22:22:35.258Z,99318.19
2018-08-10T22:25:03.673Z,99320.22
2018-08-10T22:27:31.763Z,99326.36
2018-08-10T22:29:59.885Z,99329.73
2018-08-10T22:32:28.093Z,99328.45
2018-08-10T22:34:58.685Z,99339.58
2018-08-10T22:37:26.835Z,99336.36
2018-08-10T22:39:55.041Z,99333.62
2018-08-10T22:42:23.121Z,99332.78
2018-08-10T22:44:51.215Z,99333.91
2018-08-10T22:47:19.296Z,99330.28
2018-08-10T22:49:47.445Z,99338.64
2018-08-10T22:52:15.480Z,99334.45
2018-08-10T22:54:43.620Z,99331.87
2018-08-10T22:57:11.729Z,99332.35
2018-08-10T22:59:39.927Z,99332.39
2018-08-10T23:02:08.031Z,99330.28
2018-08-10T23:04:36.380Z,99325.61
2018-08-10T23:07:05.139Z,99324.64
2018-08-10T23:09:33.383Z,99327.55
2018-08-10T23:12:01.523Z,99328.48
2018-08-10T23:14:29.668Z,99332.15
2018-08-10T23:16:57.835Z,99331.50
2018-08-10T23:19:26.464Z,99326.51
2018-08-10T23:21:54.578Z,99325.05
2018-08-10T23:24:23.384Z,99324.71
2018-08-10T23:26:51.518Z,99333.53
2018-08-10T23:29:19.704Z,99325.94
2018-08-10T23:31:47.809Z,99323.05
2018-08-10T23:34:15.939Z,99326.56
2018-08-10T23:36:44.056Z,99323.37
2018-08-10T23:39:12.823Z,99323.05
2018-08-10T23:41:41.460Z,99323.61
2018-08-10T23:44:09.643Z,99322.95
2018-08-10T23:46:37.756Z,99326.82
2018-08-10T23:49:05.945Z,99326.92
2018-08-10T23:51:34.195Z,99320.43
2018-08-10T23:54:02.275Z,99320.58
2018-08-10T23:56:30.382Z,99325.83
2018-08-10T23:58:59.590Z,99326.83
